Time;durP1;ratioP1;P1;durP2;ratioP2;P2;SDS_P1;SDS_P2;PMS_P1;PMS_P2;Temp;Humidity;BMP_temperature;BMP_pressure;BME280_temperature;BME280_humidity;BME280_pressure;Samples;Min_cycle;Max_cycle;Signal;HPM_P1;HPM_P2
2021/12/30 00:02:19;;;;;;;34.93;15.63;;;;;;;-3.40;100.00;146830.69;1688611;84;22012;-66
2021/12/30 00:04:46;;;;;;;33.95;15.23;;;;;;;-3.40;100.00;146829.42;1680622;84;21058;-66
2021/12/30 00:07:13;;;;;;;29.93;13.73;;;;;;;-3.41;100.00;146826.86;1665803;84;21141;-66
2021/12/30 00:09:41;;;;;;;30.23;13.87;;;;;;;-3.42;100.00;146825.56;1649640;85;21114;-66
2021/12/30 00:12:09;;;;;;;33.70;14.23;;;;;;;-3.43;100.00;146821.69;1662638;85;21051;-68
2021/12/30 00:14:37;;;;;;;30.77;13.97;;;;;;;-3.43;100.00;146821.69;1694996;84;21155;-66
2021/12/30 00:17:04;;;;;;;26.80;13.10;;;;;;;-3.42;100.00;146824.30;1648169;84;21300;-66
2021/12/30 00:19:33;;;;;;;28.40;13.10;;;;;;;-3.41;100.00;146826.86;1684705;84;21058;-66
2021/12/30 00:21:59;;;;;;;28.13;12.93;;;;;;;-3.42;100.00;146824.30;1686994;83;21110;-66
2021/12/30 00:24:26;;;;;;;28.73;12.93;;;;;;;-3.45;100.00;146819.12;1689033;84;21127;-57
2021/12/30 00:26:53;;;;;;;29.60;13.23;;;;;;;-3.47;100.00;146812.73;1656954;85;21129;-56
2021/12/30 00:29:20;;;;;;;28.67;13.83;;;;;;;-3.49;100.00;146807.59;1679082;84;20999;-57
2021/12/30 00:31:48;;;;;;;29.17;13.63;;;;;;;-3.52;100.00;146801.17;1651255;84;21448;-58
2021/12/30 00:34:15;;;;;;;25.77;11.60;;;;;;;-3.54;100.00;146794.73;1651407;86;21087;-65
2021/12/30 00:36:42;;;;;;;29.50;14.30;;;;;;;-3.57;100.00;146788.34;1667452;85;21152;-66
2021/12/30 00:39:09;;;;;;;27.00;12.80;;;;;;;-3.60;100.00;146781.91;1683095;84;21154;-66
2021/12/30 00:41:38;;;;;;;31.03;13.23;;;;;;;-3.62;100.00;146776.78;1634794;86;21556;-66
2021/12/30 00:44:05;;;;;;;26.97;13.57;;;;;;;-3.60;100.00;146780.66;1681658;82;21075;-66
2021/12/30 00:46:32;;;;;;;25.20;12.47;;;;;;;-3.59;100.00;146783.22;1675012;84;21106;-66
2021/12/30 00:48:59;;;;;;;24.07;10.57;;;;;;;-3.59;100.00;146783.22;1682939;84;21467;-65
2021/12/30 00:51:25;;;;;;;30.03;12.50;;;;;;;-3.61;100.00;146778.09;1690769;84;21081;-66
2021/12/30 00:53:53;;;;;;;28.77;12.47;;;;;;;-3.65;100.00;146769.09;1681065;84;21086;-66
2021/12/30 00:56:20;;;;;;;26.83;12.30;;;;;;;-3.65;100.00;146769.09;1690883;84;20993;-66
2021/12/30 00:58:47;;;;;;;25.17;11.67;;;;;;;-3.64;100.00;146770.41;1674815;84;21058;-66
2021/12/30 01:01:13;;;;;;;22.77;10.50;;;;;;;-3.61;100.00;146778.09;1676474;83;21481;-66
2021/12/30 01:03:39;;;;;;;21.00;10.03;;;;;;;-3.60;100.00;146781.91;1680641;83;21158;-67
2021/12/30 01:06:06;;;;;;;20.17;10.13;;;;;;;-3.59;100.00;146783.22;1653005;84;21050;-67
2021/12/30 01:08:33;;;;;;;23.00;10.30;;;;;;;-3.61;100.00;146778.09;1678515;83;21472;-67
2021/12/30 01:11:04;;;;;;;23.07;10.40;;;;;;;-3.61;100.00;146779.34;1683586;83;21087;-66
2021/12/30 01:13:30;;;;;;;23.77;10.53;;;;;;;-3.60;100.00;146780.66;1676676;83;21097;-66
2021/12/30 01:16:03;;;;;;;18.33;9.93;;;;;;;-3.61;100.00;146778.09;1678786;83;21361;-66
2021/12/30 01:18:55;;;;;;;22.45;10.60;;;;;;;-3.64;100.00;146771.66;1668059;84;21024;-67
2021/12/30 01:21:12;;;;;;;19.70;9.23;;;;;;;-3.64;100.00;146771.66;1678296;84;21488;-67
2021/12/30 01:23:41;;;;;;;21.33;10.57;;;;;;;-3.67;100.00;146763.97;1668644;84;21079;-67
2021/12/30 01:26:09;;;;;;;19.90;9.80;;;;;;;-3.75;100.00;146744.72;1673670;84;21126;-65
2021/12/30 01:28:35;;;;;;;22.37;9.25;;;;;;;-3.87;100.00;146713.91;1681393;84;21122;-66
2021/12/30 01:31:03;;;;;;;20.43;10.63;;;;;;;-3.94;100.00;146697.27;1666508;83;21106;-66
2021/12/30 01:33:30;;;;;;;20.03;9.70;;;;;;;-3.97;100.00;146688.28;1667034;84;21693;-67
2021/12/30 01:35:57;;;;;;;20.07;9.93;;;;;;;-4.02;100.00;146676.72;1677458;84;21470;-66
2021/12/30 01:38:23;;;;;;;18.63;9.90;;;;;;;-4.06;100.00;146667.78;1672861;84;21134;-66
2021/12/30 01:40:51;;;;;;;17.83;9.40;;;;;;;-4.07;100.00;146665.22;1666952;84;21894;-65
2021/12/30 01:43:18;;;;;;;20.37;10.40;;;;;;;-4.07;100.00;146665.22;1667826;84;21079;-66
2021/12/30 01:45:45;;;;;;;17.50;7.87;;;;;;;-4.05;100.00;146670.34;1661230;84;21063;-66
2021/12/30 01:48:12;;;;;;;18.70;9.10;;;;;;;-4.07;100.00;146665.22;1671572;84;21556;-67
2021/12/30 01:50:39;;;;;;;18.30;9.17;;;;;;;-4.14;100.00;146647.22;1668808;85;21073;-67
2021/12/30 01:53:07;;;;;;;16.10;8.63;;;;;;;-4.20;100.00;146633.16;1658033;84;21134;-66
2021/12/30 01:55:35;;;;;;;17.67;9.30;;;;;;;-4.25;100.00;146620.30;1679135;83;21053;-65
2021/12/30 01:58:02;;;;;;;15.67;8.33;;;;;;;-4.33;100.00;146601.05;1691519;84;21059;-67
2021/12/30 02:00:30;;;;;;;17.30;8.50;;;;;;;-4.33;100.00;146601.05;1698521;84;21383;-67
2021/12/30 02:02:58;;;;;;;18.77;9.43;;;;;;;-4.35;100.00;146595.92;1684814;84;21065;-66
2021/12/30 02:05:25;;;;;;;16.80;8.53;;;;;;;-4.34;100.00;146598.48;1684556;84;21165;-66
2021/12/30 02:07:52;;;;;;;15.93;8.47;;;;;;;-4.33;100.00;146601.05;1680406;84;21061;-66
2021/12/30 02:10:19;;;;;;;19.83;9.13;;;;;;;-4.30;100.00;146606.22;1686814;84;21124;-66
2021/12/30 02:12:46;;;;;;;15.40;7.97;;;;;;;-4.29;100.00;146608.78;1681242;84;21092;-66
2021/12/30 02:15:16;;;;;;;17.57;8.40;;;;;;;-4.34;100.00;146598.48;1666045;84;21111;-67
2021/12/30 02:17:45;;;;;;;18.33;8.90;;;;;;;-4.38;100.00;146588.25;1678667;84;21143;-66
2021/12/30 02:20:15;;;;;;;19.20;8.83;;;;;;;-4.42;100.00;146578.00;1692936;82;21042;-66
2021/12/30 02:22:42;;;;;;;19.80;8.70;;;;;;;-4.46;100.00;146567.75;1688587;84;21475;-67
2021/12/30 02:25:09;;;;;;;18.30;9.17;;;;;;;-4.48;100.00;146563.87;1692358;84;21074;-67
2021/12/30 02:27:36;;;;;;;22.13;8.93;;;;;;;-4.47;100.00;146565.19;1693019;84;21435;-68
2021/12/30 02:30:03;;;;;;;21.13;9.90;;;;;;;-4.47;100.00;146566.44;1671155;84;21097;-65
2021/12/30 02:32:32;;;;;;;15.90;8.77;;;;;;;-4.47;100.00;146565.19;1695406;84;21074;-66
2021/12/30 02:34:58;;;;;;;17.10;8.83;;;;;;;-4.51;100.00;146554.94;1696506;84;21479;-56
2021/12/30 02:37:25;;;;;;;18.50;9.67;;;;;;;-4.56;100.00;146542.08;1678450;84;21085;-57
2021/12/30 02:39:53;;;;;;;16.70;8.07;;;;;;;-4.57;100.00;146539.52;1690404;84;21029;-56
2021/12/30 02:42:24;;;;;;;16.07;6.77;;;;;;;-4.56;100.00;146542.08;1685053;84;21781;-56
2021/12/30 02:44:51;;;;;;;17.77;8.00;;;;;;;-4.60;100.00;146534.39;1689052;82;21582;-56
2021/12/30 02:47:18;;;;;;;16.23;6.77;;;;;;;-4.63;100.00;146525.45;1680864;84;21032;-56
2021/12/30 02:49:44;;;;;;;14.67;6.73;;;;;;;-4.66;100.00;146517.72;1680840;84;21097;-56
2021/12/30 02:52:11;;;;;;;14.87;6.40;;;;;;;-4.71;100.00;146506.22;1688325;82;21108;-56
2021/12/30 02:54:41;;;;;;;12.87;7.20;;;;;;;-4.75;100.00;146497.23;1693101;84;21952;-57
2021/12/30 02:57:09;;;;;;;12.10;6.70;;;;;;;-4.76;100.00;146493.36;1684139;84;20982;-56
2021/12/30 02:59:36;;;;;;;14.53;7.57;;;;;;;-4.79;100.00;146486.98;1670896;84;21511;-57
2021/12/30 03:02:05;;;;;;;11.90;6.50;;;;;;;-4.77;100.00;146490.80;1682121;83;21067;-56
2021/12/30 03:04:33;;;;;;;14.30;7.70;;;;;;;-4.74;100.00;146498.53;1675633;84;21001;-56
2021/12/30 03:06:59;;;;;;;13.60;7.53;;;;;;;-4.74;100.00;146498.53;1669014;83;21170;-57
2021/12/30 03:09:26;;;;;;;18.97;7.57;;;;;;;-4.73;100.00;146499.80;1672743;84;21010;-57
2021/12/30 03:11:55;;;;;;;13.97;7.50;;;;;;;-4.71;100.00;146506.22;1665885;84;21154;-57
2021/12/30 03:14:24;;;;;;;15.23;7.60;;;;;;;-4.68;100.00;146512.59;1676544;83;21102;-56
2021/12/30 03:16:50;;;;;;;15.47;7.53;;;;;;;-4.67;100.00;146515.16;1676997;84;21492;-56
2021/12/30 03:19:16;;;;;;;17.43;8.07;;;;;;;-4.67;100.00;146516.47;1674135;84;21189;-56
2021/12/30 03:21:43;;;;;;;16.10;7.80;;;;;;;-4.69;100.00;146510.03;1671812;84;21110;-56
2021/12/30 03:24:09;;;;;;;14.30;8.20;;;;;;;-4.70;100.00;146508.78;1670810;84;21493;-56
2021/12/30 03:26:36;;;;;;;18.87;9.13;;;;;;;-4.73;100.00;146501.09;1672848;84;21083;-56
2021/12/30 03:29:04;;;;;;;21.67;11.13;;;;;;;-4.74;100.00;146498.53;1670538;84;21350;-57
2021/12/30 03:31:30;;;;;;;26.93;12.47;;;;;;;-4.75;100.00;146497.23;1661063;84;21500;-57
2021/12/30 03:33:57;;;;;;;21.20;10.97;;;;;;;-4.79;100.00;146485.69;1672050;84;21100;-57
2021/12/30 03:36:25;;;;;;;24.67;12.03;;;;;;;-4.82;100.00;146479.30;1681138;83;21166;-57
2021/12/30 03:38:53;;;;;;;18.70;9.67;;;;;;;-4.84;100.00;146474.19;1663146;84;21118;-57
2021/12/30 03:41:22;;;;;;;18.27;9.33;;;;;;;-4.83;100.00;146475.44;1666406;83;21047;-56
2021/12/30 03:43:50;;;;;;;19.13;9.00;;;;;;;-4.82;100.00;146478.00;1675743;84;21190;-56
2021/12/30 03:46:16;;;;;;;20.33;9.17;;;;;;;-4.78;100.00;146488.25;1661804;84;21111;-56
2021/12/30 03:48:44;;;;;;;15.13;8.03;;;;;;;-4.75;100.00;146495.97;1663184;84;21411;-56
2021/12/30 03:51:21;;;;;;;16.50;8.57;;;;;;;-4.72;100.00;146503.66;1668766;84;21094;-57
2021/12/30 03:53:49;;;;;;;;;;;;;;;-4.71;100.00;146506.22;1670750;84;21161;-56
2021/12/30 03:56:13;;;;;;;16.20;8.80;;;;;;;-4.70;100.00;146508.78;1676173;83;21164;-56
2021/12/30 03:58:42;;;;;;;15.67;8.27;;;;;;;-4.71;100.00;146504.91;1697198;82;21082;-66
2021/12/30 04:01:09;;;;;;;17.70;8.57;;;;;;;-4.72;100.00;146503.66;1683670;83;21087;-66
2021/12/30 04:03:36;;;;;;;19.97;9.73;;;;;;;-4.72;100.00;146503.66;1689708;83;21055;-67
2021/12/30 04:06:02;;;;;;;22.40;10.20;;;;;;;-4.73;100.00;146501.09;1686176;84;21043;-66
2021/12/30 04:08:30;;;;;;;18.17;8.93;;;;;;;-4.74;100.00;146498.53;1688439;83;21055;-67
2021/12/30 04:10:57;;;;;;;18.63;9.20;;;;;;;-4.73;100.00;146501.09;1692563;84;21044;-67
2021/12/30 04:13:24;;;;;;;21.27;11.37;;;;;;;-4.74;100.00;146498.53;1686029;83;21073;-66
2021/12/30 04:15:52;;;;;;;21.37;11.00;;;;;;;-4.71;100.00;146504.91;1689572;84;21059;-66
2021/12/30 04:18:20;;;;;;;26.57;12.57;;;;;;;-4.72;100.00;146503.66;1683732;84;21082;-67
2021/12/30 04:20:47;;;;;;;23.60;11.57;;;;;;;-4.70;100.00;146507.47;1680831;83;22061;-66
2021/12/30 04:23:14;;;;;;;22.40;11.70;;;;;;;-4.69;100.00;146511.34;1652047;85;21078;-65
2021/12/30 04:25:41;;;;;;;23.60;11.10;;;;;;;-4.66;100.00;146519.03;1637088;86;21081;-66
2021/12/30 04:28:07;;;;;;;24.37;11.90;;;;;;;-4.65;100.00;146521.59;1675444;84;21124;-66
2021/12/30 04:30:36;;;;;;;17.87;8.50;;;;;;;-4.65;100.00;146521.59;1665096;85;22169;-65
2021/12/30 04:33:04;;;;;;;23.67;11.17;;;;;;;-4.63;100.00;146526.72;1666450;85;23159;-66
2021/12/30 04:35:31;;;;;;;21.43;11.13;;;;;;;-4.65;100.00;146521.59;1654929;85;21060;-66
2021/12/30 04:37:58;;;;;;;20.43;10.67;;;;;;;-4.67;100.00;146516.47;1670603;84;21159;-66
2021/12/30 04:40:24;;;;;;;23.67;11.13;;;;;;;-4.67;100.00;146515.16;1689919;84;21089;-66
2021/12/30 04:42:51;;;;;;;24.63;11.33;;;;;;;-4.67;100.00;146516.47;1680716;84;21080;-57
2021/12/30 04:45:18;;;;;;;23.57;10.63;;;;;;;-4.68;100.00;146513.91;1662802;84;21970;-57
2021/12/30 04:47:45;;;;;;;23.27;11.23;;;;;;;-4.65;100.00;146520.28;1653417;85;21025;-58
2021/12/30 04:50:13;;;;;;;24.23;11.03;;;;;;;-4.65;100.00;146521.59;1662213;85;21586;-57
2021/12/30 04:52:41;;;;;;;24.10;11.77;;;;;;;-4.66;100.00;146517.72;1686153;83;21112;-56
2021/12/30 04:55:10;;;;;;;25.33;11.63;;;;;;;-4.67;100.00;146516.47;1668027;84;21130;-57
2021/12/30 04:57:37;;;;;;;22.73;11.30;;;;;;;-4.65;100.00;146521.59;1646890;84;21061;-66
2021/12/30 05:00:08;;;;;;;31.17;13.73;;;;;;;-4.64;100.00;146522.89;1641691;85;21086;-66
2021/12/30 05:03:00;;;;;;;24.10;11.30;;;;;;;-4.64;100.00;146524.16;1639343;85;21442;-57
2021/12/30 05:05:05;;;;;;;22.90;11.50;;;;;;;-4.63;100.00;146526.72;1666316;84;21078;-57
2021/12/30 05:07:33;;;;;;;28.30;12.23;;;;;;;-4.64;100.00;146524.16;1667001;85;22221;-67
2021/12/30 05:10:00;;;;;;;27.37;12.50;;;;;;;-4.65;100.00;146521.59;1668962;85;22381;-66
2021/12/30 05:12:27;;;;;;;29.10;13.87;;;;;;;-4.65;100.00;146520.28;1659742;84;21063;-66
2021/12/30 05:14:53;;;;;;;28.57;13.63;;;;;;;-4.65;100.00;146521.59;1655052;84;21240;-66
2021/12/30 05:17:19;;;;;;;30.17;14.13;;;;;;;-4.64;100.00;146524.16;1653645;85;21066;-66
2021/12/30 05:19:46;;;;;;;25.03;12.57;;;;;;;-4.63;100.00;146525.45;1668625;85;21102;-66
2021/12/30 05:22:13;;;;;;;30.20;13.20;;;;;;;-4.57;100.00;146539.52;1647790;84;22244;-66
2021/12/30 05:24:40;;;;;;;28.90;12.93;;;;;;;-4.54;100.00;146548.50;1651175;85;21601;-66
2021/12/30 05:27:07;;;;;;;27.73;13.83;;;;;;;-4.51;100.00;146554.94;1673501;85;21089;-66
2021/12/30 05:29:33;;;;;;;25.70;13.27;;;;;;;-4.51;100.00;146554.94;1666546;83;21562;-68
2021/12/30 05:32:00;;;;;;;31.70;14.93;;;;;;;-4.47;100.00;146565.19;1677326;83;21165;-67
2021/12/30 05:34:26;;;;;;;25.37;12.80;;;;;;;-4.49;100.00;146561.31;1659127;85;21129;-58
2021/12/30 05:36:53;;;;;;;32.00;14.17;;;;;;;-4.49;100.00;146561.31;1652380;84;21455;-57
2021/12/30 05:39:20;;;;;;;28.93;14.23;;;;;;;-4.49;100.00;146561.31;1661697;83;21105;-57
2021/12/30 05:41:46;;;;;;;29.30;12.03;;;;;;;-4.51;100.00;146554.94;1655245;86;21310;-57
2021/12/30 05:44:13;;;;;;;28.77;13.47;;;;;;;-4.52;100.00;146552.38;1659256;84;21101;-58
2021/12/30 05:46:40;;;;;;;29.73;14.40;;;;;;;-4.51;100.00;146554.94;1654636;84;21926;-57
2021/12/30 05:49:07;;;;;;;32.47;14.10;;;;;;;-4.51;100.00;146556.19;1663302;85;21571;-57
2021/12/30 05:51:34;;;;;;;33.27;15.33;;;;;;;-4.50;100.00;146557.50;1609977;88;21120;-57
2021/12/30 05:54:02;;;;;;;30.60;13.60;;;;;;;-4.52;100.00;146553.63;1664076;84;21107;-57
2021/12/30 05:56:28;;;;;;;27.97;13.53;;;;;;;-4.54;100.00;146547.20;1675841;83;21126;-58
2021/12/30 05:58:56;;;;;;;31.60;15.30;;;;;;;-4.58;100.00;146538.25;1674378;84;21161;-58
2021/12/30 06:01:22;;;;;;;30.03;13.87;;;;;;;-4.60;100.00;146533.14;1682386;82;21824;-57
2021/12/30 06:03:49;;;;;;;33.63;14.90;;;;;;;-4.62;100.00;146529.27;1685108;84;21057;-56
2021/12/30 06:06:16;;;;;;;35.33;15.87;;;;;;;-4.60;100.00;146534.39;1679838;84;21117;-58
2021/12/30 06:08:43;;;;;;;33.87;14.40;;;;;;;-4.56;100.00;146542.08;1672859;84;21073;-57
2021/12/30 06:11:10;;;;;;;32.30;14.50;;;;;;;-4.60;100.00;146534.39;1647467;85;21153;-57
2021/12/30 06:13:36;;;;;;;29.37;13.20;;;;;;;-4.61;100.00;146531.83;1670688;85;21055;-57
2021/12/30 06:16:05;;;;;;;25.00;11.27;;;;;;;-4.64;100.00;146524.16;1679531;84;21031;-57
2021/12/30 06:18:32;;;;;;;27.73;13.10;;;;;;;-4.69;100.00;146511.34;1684595;84;21650;-57
2021/12/30 06:20:58;;;;;;;26.10;12.27;;;;;;;-4.73;100.00;146499.80;1685574;82;21122;-57
2021/12/30 06:23:25;;;;;;;23.13;11.50;;;;;;;-4.72;100.00;146503.66;1668206;84;21471;-57
2021/12/30 06:25:52;;;;;;;28.63;11.53;;;;;;;-4.69;100.00;146511.34;1672856;84;21055;-57
2021/12/30 06:28:19;;;;;;;25.03;11.33;;;;;;;-4.67;100.00;146515.16;1651989;84;21028;-59
2021/12/30 06:30:46;;;;;;;22.03;10.77;;;;;;;-4.71;100.00;146506.22;1674516;84;21125;-56
2021/12/30 06:33:13;;;;;;;21.53;9.63;;;;;;;-4.75;100.00;146497.23;1670188;84;21145;-58
2021/12/30 06:35:39;;;;;;;22.57;9.73;;;;;;;-4.78;100.00;146489.55;1672194;84;22212;-67
2021/12/30 06:38:06;;;;;;;21.30;9.57;;;;;;;-4.81;100.00;146481.86;1685003;84;21082;-67
2021/12/30 06:40:34;;;;;;;23.37;9.83;;;;;;;-4.86;100.00;146467.75;1677331;84;21086;-66
2021/12/30 06:43:01;;;;;;;20.53;9.40;;;;;;;-4.89;100.00;146461.33;1671343;84;21074;-66
2021/12/30 06:45:28;;;;;;;26.50;10.80;;;;;;;-4.90;100.00;146460.06;1670504;84;21488;-67
2021/12/30 06:47:54;;;;;;;20.37;10.37;;;;;;;-4.90;100.00;146460.06;1669428;84;21122;-66
2021/12/30 06:50:24;;;;;;;26.20;10.33;;;;;;;-4.91;100.00;146456.20;1667511;84;21147;-65
2021/12/30 06:52:49;;;;;;;21.30;9.80;;;;;;;-4.91;100.00;146457.50;1672843;84;21145;-67
2021/12/30 06:55:16;;;;;;;20.10;9.83;;;;;;;-4.85;100.00;146470.31;1677985;83;21574;-67
2021/12/30 06:57:43;;;;;;;22.47;10.80;;;;;;;-4.83;100.00;146475.44;1678108;82;21063;-66
2021/12/30 07:00:11;;;;;;;23.83;12.43;;;;;;;-4.83;100.00;146475.44;1665579;84;21172;-67
2021/12/30 07:02:42;;;;;;;22.03;10.30;;;;;;;-4.86;100.00;146469.06;1668807;84;21421;-67
2021/12/30 07:05:10;;;;;;;18.67;9.20;;;;;;;-4.84;100.00;146472.88;1674271;84;21091;-67
2021/12/30 07:07:36;;;;;;;19.97;9.93;;;;;;;-4.84;100.00;146472.88;1661859;84;21043;-66
2021/12/30 07:10:05;;;;;;;19.83;10.77;;;;;;;-4.79;100.00;146485.69;1663535;84;21106;-66
2021/12/30 07:12:31;;;;;;;21.53;9.63;;;;;;;-4.75;100.00;146495.97;1667258;84;21496;-66
2021/12/30 07:14:59;;;;;;;27.17;11.67;;;;;;;-4.77;100.00;146490.80;1658939;84;21112;-66
2021/12/30 07:17:29;;;;;;;20.10;10.53;;;;;;;-4.76;100.00;146494.66;1663109;84;21518;-67
2021/12/30 07:19:54;;;;;;;21.00;11.40;;;;;;;-4.74;100.00;146498.53;1661485;84;21083;-64
2021/12/30 07:22:23;;;;;;;22.17;11.60;;;;;;;-4.69;100.00;146511.34;1663820;84;21076;-66
2021/12/30 07:24:50;;;;;;;20.33;10.23;;;;;;;-4.65;100.00;146521.59;1663323;85;21156;-65
2021/12/30 07:27:17;;;;;;;14.63;8.67;;;;;;;-4.61;100.00;146531.83;1664382;84;21101;-66
2021/12/30 07:29:44;;;;;;;17.83;8.30;;;;;;;-4.56;100.00;146542.08;1666003;84;21118;-67
2021/12/30 07:32:11;;;;;;;15.80;8.17;;;;;;;-4.55;100.00;146544.64;1662548;84;21115;-65
2021/12/30 07:34:38;;;;;;;14.97;7.27;;;;;;;-4.55;100.00;146544.64;1662194;85;21008;-65
2021/12/30 07:37:05;;;;;;;16.90;7.43;;;;;;;-4.53;100.00;146549.77;1660668;84;21270;-64
2021/12/30 07:39:34;;;;;;;18.23;8.23;;;;;;;-4.52;100.00;146552.38;1662598;84;22197;-64
2021/12/30 07:42:03;;;;;;;14.67;8.00;;;;;;;-4.54;100.00;146548.50;1630090;86;21112;-66
2021/12/30 07:44:31;;;;;;;15.40;7.20;;;;;;;-4.56;100.00;146542.08;1672485;84;22466;-65
2021/12/30 07:46:58;;;;;;;14.57;7.27;;;;;;;-4.56;100.00;146543.39;1654998;84;21288;-66
2021/12/30 07:49:25;;;;;;;14.77;7.17;;;;;;;-4.55;100.00;146545.94;1656517;84;21095;-65
2021/12/30 07:51:51;;;;;;;16.47;7.93;;;;;;;-4.50;100.00;146558.75;1656689;84;21545;-65
2021/12/30 07:54:18;;;;;;;18.30;8.53;;;;;;;-4.48;100.00;146563.87;1654628;84;21098;-65
2021/12/30 07:56:45;;;;;;;17.30;7.40;;;;;;;-4.44;100.00;146572.87;1656267;84;21107;-65
2021/12/30 07:59:11;;;;;;;18.80;7.73;;;;;;;-4.42;100.00;146576.69;1655692;84;21530;-65
2021/12/30 08:01:39;;;;;;;19.47;7.77;;;;;;;-4.39;100.00;146585.69;1662822;84;21851;-65
2021/12/30 08:04:05;;;;;;;18.83;9.17;;;;;;;-4.33;100.00;146601.05;1665342;84;21295;-66
2021/12/30 08:06:34;;;;;;;17.67;8.47;;;;;;;-4.26;100.00;146617.73;1668685;84;21103;-65
2021/12/30 08:09:01;;;;;;;15.60;7.63;;;;;;;-4.19;100.00;146634.41;1669382;84;21137;-65
2021/12/30 08:11:29;;;;;;;15.13;7.90;;;;;;;-4.11;100.00;146654.91;1662957;84;21044;-65
2021/12/30 08:13:56;;;;;;;14.33;7.07;;;;;;;-4.07;100.00;146665.22;1661062;84;21591;-65
2021/12/30 08:16:23;;;;;;;19.83;8.60;;;;;;;-4.09;100.00;146660.08;1664667;84;21072;-65
2021/12/30 08:18:51;;;;;;;18.50;8.43;;;;;;;-4.11;100.00;146654.91;1636202;86;21553;-65
2021/12/30 08:21:21;;;;;;;17.70;8.17;;;;;;;-4.08;100.00;146662.64;1663470;84;21114;-65
2021/12/30 08:23:51;;;;;;;18.73;8.47;;;;;;;-4.03;100.00;146674.16;1658208;86;21544;-65
2021/12/30 08:26:23;;;;;;;20.53;9.17;;;;;;;-4.06;100.00;146667.78;1627415;86;21635;-67
2021/12/30 08:28:49;;;;;;;18.27;7.57;;;;;;;-4.04;100.00;146672.91;1633105;85;21123;-65
2021/12/30 08:31:16;;;;;;;16.77;7.93;;;;;;;-4.04;100.00;146672.91;1624402;86;21104;-64
2021/12/30 08:33:47;;;;;;;17.60;8.70;;;;;;;-4.04;100.00;146672.91;1629644;86;21712;-64
2021/12/30 08:36:16;;;;;;;18.67;8.20;;;;;;;-4.00;100.00;146680.59;1663283;84;21096;-66
2021/12/30 08:38:44;;;;;;;18.67;7.87;;;;;;;-3.94;100.00;146697.27;1669686;84;21542;-64
2021/12/30 08:41:10;;;;;;;21.63;8.97;;;;;;;-3.90;100.00;146707.53;1666497;84;21077;-65
2021/12/30 08:43:37;;;;;;;19.13;9.43;;;;;;;-3.89;100.00;146708.78;1659680;84;21095;-64
2021/12/30 08:46:04;;;;;;;20.73;9.20;;;;;;;-3.92;100.00;146702.39;1669993;84;21096;-65
2021/12/30 08:48:31;;;;;;;19.53;9.07;;;;;;;-3.95;100.00;146693.41;1662170;84;21085;-58
2021/12/30 08:51:05;;;;;;;30.10;9.20;;;;;;;-3.94;100.00;146695.97;1663089;84;21098;-57
2021/12/30 08:53:40;;;;;;;19.87;8.50;;;;;;;-3.91;100.00;146704.95;1648818;84;21082;-58
2021/12/30 08:56:06;;;;;;;25.10;10.17;;;;;;;-3.88;100.00;146711.34;1662772;84;21650;-58
2021/12/30 08:58:33;;;;;;;21.03;9.73;;;;;;;-3.87;100.00;146713.91;1658175;84;21094;-58
2021/12/30 09:00:59;;;;;;;18.33;8.77;;;;;;;-3.86;100.00;146716.52;1664999;84;21119;-57
2021/12/30 09:03:28;;;;;;;18.47;8.83;;;;;;;-3.87;100.00;146712.66;1663382;84;21123;-58
2021/12/30 09:05:55;;;;;;;17.57;7.93;;;;;;;-3.89;100.00;146708.78;1656610;84;21173;-58
2021/12/30 09:08:21;;;;;;;14.07;7.33;;;;;;;-3.92;100.00;146702.39;1649807;85;21082;-58
2021/12/30 09:10:50;;;;;;;19.00;9.10;;;;;;;-3.92;100.00;146702.39;1638694;86;21123;-65
2021/12/30 09:13:19;;;;;;;18.53;8.43;;;;;;;-3.89;100.00;146710.09;1640134;84;21128;-67
2021/12/30 09:15:46;;;;;;;17.07;8.73;;;;;;;-3.80;100.00;146730.59;1640663;84;21672;-65
2021/12/30 09:18:13;;;;;;;17.77;9.00;;;;;;;-3.71;100.00;146752.41;1650994;84;21699;-60
2021/12/30 09:20:41;;;;;;;25.13;10.80;;;;;;;-3.66;100.00;146765.22;1669818;84;21436;-59
2021/12/30 09:23:10;;;;;;;24.73;10.73;;;;;;;-3.67;100.00;146763.97;1664877;84;21564;-60
2021/12/30 09:25:38;;;;;;;26.00;10.40;;;;;;;-3.65;100.00;146767.78;1637933;86;21558;-60
2021/12/30 09:28:07;;;;;;;30.27;10.97;;;;;;;-3.66;99.63;146766.53;1665857;84;21617;-60
2021/12/30 09:30:34;;;;;;;23.67;11.43;;;;;;;-3.64;99.96;146770.41;1661334;84;21091;-65
2021/12/30 09:33:01;;;;;;;32.30;12.07;;;;;;;-3.64;99.31;146770.41;1664571;84;22121;-69
2021/12/30 09:35:29;;;;;;;22.53;10.00;;;;;;;-3.64;99.42;146771.66;1645154;85;21116;-68
2021/12/30 09:37:56;;;;;;;37.73;12.17;;;;;;;-3.57;99.97;146788.34;1648209;85;21423;-67
2021/12/30 09:40:24;;;;;;;22.30;11.57;;;;;;;-3.49;100.00;146807.59;1650386;85;22039;-68
2021/12/30 09:43:01;;;;;;;24.95;11.60;;;;;;;-3.43;99.85;146822.98;1645644;85;21175;-66
2021/12/30 09:45:25;;;;;;;27.70;12.00;;;;;;;-3.40;99.24;146829.42;1657370;84;21084;-69
2021/12/30 09:47:55;;;;;;;30.70;13.20;;;;;;;-3.36;99.52;146840.94;1649463;85;21067;-65
2021/12/30 09:50:28;;;;;;;26.53;12.07;;;;;;;-3.33;99.25;146847.37;1651881;84;21168;-57
2021/12/30 09:52:59;;;;;;;25.50;12.40;;;;;;;-3.33;98.84;146847.37;1653373;84;21188;-58
2021/12/30 09:55:26;;;;;;;26.50;13.20;;;;;;;-3.36;98.16;146839.67;1649548;84;21144;-57
2021/12/30 09:57:53;;;;;;;26.50;12.23;;;;;;;-3.42;98.46;146825.56;1653915;84;21553;-58
2021/12/30 10:00:22;;;;;;;28.63;12.90;;;;;;;-3.48;98.17;146811.42;1655600;84;21124;-58
2021/12/30 10:08:21;;;;;;;22.87;11.33;;;;;;;-3.69;98.82;146757.53;1657233;84;21099;-58
2021/12/30 10:10:50;;;;;;;23.77;10.53;;;;;;;-3.76;98.82;146742.16;1675672;84;21057;-58
2021/12/30 10:13:29;;;;;;;30.90;12.65;;;;;;;-3.79;99.37;146734.47;1671842;84;21095;-59
2021/12/30 10:15:59;;;;;;;25.37;11.63;;;;;;;-3.76;99.87;146740.84;1663322;84;21096;-58
2021/12/30 10:18:43;;;;;;;24.47;11.30;;;;;;;-3.71;100.00;146753.72;1644163;85;21111;-58
2021/12/30 10:24:07;;;;;;;26.43;12.80;;;;;;;-3.69;100.00;146757.53;1632030;85;21085;-59
2021/12/30 10:26:52;;;;;;;27.30;12.50;;;;;;;-3.75;99.69;146744.72;1654599;86;21133;-57
2021/12/30 10:29:19;;;;;;;30.60;12.88;;;;;;;-3.78;99.98;146737.03;1669658;84;21170;-57
2021/12/30 10:31:47;;;;;;;26.03;13.10;;;;;;;-3.77;100.00;146739.59;1637876;84;21474;-59
2021/12/30 10:34:16;;;;;;;23.40;11.70;;;;;;;-3.77;100.00;146739.59;1669346;84;21573;-59
2021/12/30 10:36:45;;;;;;;23.32;11.53;;;;;;;-3.75;100.00;146744.72;1644753;85;21105;-59
2021/12/30 10:39:28;;;;;;;26.77;12.97;;;;;;;-3.75;100.00;146744.72;1639722;86;21735;-59
2021/12/30 10:42:21;;;;;;;25.60;12.37;;;;;;;-3.76;100.00;146742.16;1666284;84;21298;-57
2021/12/30 10:44:57;;;;;;;27.23;13.30;;;;;;;-3.77;100.00;146739.59;1664686;84;21166;-58
2021/12/30 10:47:33;;;;;;;28.87;11.90;;;;;;;-3.76;100.00;146742.16;1665980;84;21072;-57
2021/12/30 10:50:07;;;;;;;25.40;12.40;;;;;;;-3.77;100.00;146739.59;1663614;84;21095;-57
2021/12/30 10:52:50;;;;;;;30.33;11.50;;;;;;;-3.74;100.00;146746.03;1663812;84;21020;-59
2021/12/30 10:55:17;;;;;;;26.40;12.13;;;;;;;-3.69;100.00;146757.53;1664237;84;21123;-59
2021/12/30 10:57:44;;;;;;;25.43;11.60;;;;;;;-3.64;100.00;146770.41;1663943;84;21876;-59
2021/12/30 11:00:18;;;;;;;28.23;12.37;;;;;;;-3.64;100.00;146771.66;1650191;85;21085;-65
2021/12/30 11:02:45;;;;;;;33.98;12.23;;;;;;;-3.65;100.00;146767.78;1634473;85;21655;-66
2021/12/30 11:05:12;;;;;;;26.70;12.27;;;;;;;-3.65;100.00;146767.78;1649125;84;21046;-66
2021/12/30 11:07:43;;;;;;;32.60;13.57;;;;;;;-3.62;100.00;146775.53;1673634;84;21472;-65
2021/12/30 11:10:11;;;;;;;26.43;13.23;;;;;;;-3.64;99.89;146770.41;1689929;83;21801;-66
2021/12/30 11:12:44;;;;;;;22.30;11.53;;;;;;;-3.63;99.95;146772.97;1677589;83;21101;-66
2021/12/30 11:15:21;;;;;;;23.15;11.25;;;;;;;-3.63;99.91;146772.97;1674805;83;21080;-65
2021/12/30 11:17:49;;;;;;;24.47;11.70;;;;;;;-3.66;99.81;146765.22;1671318;84;21072;-66
2021/12/30 11:20:19;;;;;;;27.53;11.47;;;;;;;-3.69;100.00;146757.53;1673943;83;21061;-66